sensor_id;sensor_type;location;lat;lon;timestamp;P1;durP1;ratioP1;P2;durP2;ratioP2
52432;SDS011;38352;53.244;6.594;2022-07-06T00:01:50;6.35;;;1.95;;
52432;SDS011;38352;53.244;6.594;2022-07-06T00:04:19;7.88;;;2.10;;
52432;SDS011;38352;53.244;6.594;2022-07-06T00:06:45;5.32;;;1.90;;
52432;SDS011;38352;53.244;6.594;2022-07-06T00:09:11;4.90;;;1.80;;
52432;SDS011;38352;53.244;6.594;2022-07-06T00:11:37;5.75;;;2.15;;
52432;SDS011;38352;53.244;6.594;2022-07-06T00:14:04;6.38;;;2.35;;
52432;SDS011;38352;53.244;6.594;2022-07-06T00:16:30;6.57;;;2.00;;
52432;SDS011;38352;53.244;6.594;2022-07-06T00:18:56;8.07;;;2.13;;
52432;SDS011;38352;53.244;6.594;2022-07-06T00:21:22;3.63;;;1.60;;
52432;SDS011;38352;53.244;6.594;2022-07-06T00:23:48;4.53;;;1.63;;
52432;SDS011;38352;53.244;6.594;2022-07-06T00:26:16;4.78;;;2.08;;
52432;SDS011;38352;53.244;6.594;2022-07-06T00:28:42;5.63;;;2.00;;
52432;SDS011;38352;53.244;6.594;2022-07-06T00:31:09;5.82;;;1.90;;
52432;SDS011;38352;53.244;6.594;2022-07-06T00:33:35;5.13;;;2.70;;
52432;SDS011;38352;53.244;6.594;2022-07-06T00:36:01;4.90;;;1.92;;
52432;SDS011;38352;53.244;6.594;2022-07-06T00:38:27;3.50;;;1.67;;
52432;SDS011;38352;53.244;6.594;2022-07-06T00:40:53;7.05;;;1.80;;
52432;SDS011;38352;53.244;6.594;2022-07-06T00:43:19;3.85;;;1.33;;
52432;SDS011;38352;53.244;6.594;2022-07-06T00:45:46;4.60;;;1.88;;
52432;SDS011;38352;53.244;6.594;2022-07-06T00:48:12;4.97;;;1.83;;
52432;SDS011;38352;53.244;6.594;2022-07-06T00:50:38;6.50;;;1.48;;
52432;SDS011;38352;53.244;6.594;2022-07-06T00:53:05;3.75;;;1.58;;
52432;SDS011;38352;53.244;6.594;2022-07-06T00:55:33;6.35;;;2.05;;
52432;SDS011;38352;53.244;6.594;2022-07-06T00:58:01;5.10;;;1.63;;
52432;SDS011;38352;53.244;6.594;2022-07-06T01:00:27;3.95;;;1.63;;
52432;SDS011;38352;53.244;6.594;2022-07-06T01:02:54;4.00;;;1.63;;
52432;SDS011;38352;53.244;6.594;2022-07-06T01:05:20;6.93;;;1.45;;
52432;SDS011;38352;53.244;6.594;2022-07-06T01:07:47;5.63;;;1.75;;
52432;SDS011;38352;53.244;6.594;2022-07-06T01:10:14;5.43;;;1.98;;
52432;SDS011;38352;53.244;6.594;2022-07-06T01:12:41;4.70;;;1.60;;
52432;SDS011;38352;53.244;6.594;2022-07-06T01:15:09;3.72;;;1.50;;
52432;SDS011;38352;53.244;6.594;2022-07-06T01:17:35;5.80;;;2.05;;
52432;SDS011;38352;53.244;6.594;2022-07-06T01:22:34;4.10;;;1.42;;
52432;SDS011;38352;53.244;6.594;2022-07-06T01:25:00;10.38;;;2.10;;
52432;SDS011;38352;53.244;6.594;2022-07-06T01:27:26;8.40;;;1.98;;
52432;SDS011;38352;53.244;6.594;2022-07-06T01:29:52;6.40;;;1.55;;
52432;SDS011;38352;53.244;6.594;2022-07-06T01:32:18;3.60;;;1.50;;
52432;SDS011;38352;53.244;6.594;2022-07-06T01:34:44;4.82;;;1.50;;
52432;SDS011;38352;53.244;6.594;2022-07-06T01:37:10;6.32;;;1.50;;
52432;SDS011;38352;53.244;6.594;2022-07-06T01:39:36;6.50;;;1.85;;
52432;SDS011;38352;53.244;6.594;2022-07-06T01:42:02;4.53;;;1.38;;
52432;SDS011;38352;53.244;6.594;2022-07-06T01:44:29;5.57;;;1.40;;
52432;SDS011;38352;53.244;6.594;2022-07-06T01:46:55;3.70;;;1.48;;
52432;SDS011;38352;53.244;6.594;2022-07-06T01:49:21;6.53;;;2.20;;
52432;SDS011;38352;53.244;6.594;2022-07-06T01:51:47;8.77;;;1.95;;
52432;SDS011;38352;53.244;6.594;2022-07-06T01:54:13;6.20;;;1.70;;
52432;SDS011;38352;53.244;6.594;2022-07-06T01:56:40;5.07;;;1.60;;
52432;SDS011;38352;53.244;6.594;2022-07-06T01:59:06;8.93;;;1.83;;
52432;SDS011;38352;53.244;6.594;2022-07-06T02:01:32;4.88;;;1.70;;
52432;SDS011;38352;53.244;6.594;2022-07-06T02:03:58;5.28;;;1.67;;
52432;SDS011;38352;53.244;6.594;2022-07-06T02:06:24;4.20;;;1.42;;
52432;SDS011;38352;53.244;6.594;2022-07-06T02:08:50;5.50;;;2.15;;
52432;SDS011;38352;53.244;6.594;2022-07-06T02:11:17;3.97;;;1.90;;
52432;SDS011;38352;53.244;6.594;2022-07-06T02:13:43;3.72;;;1.40;;
52432;SDS011;38352;53.244;6.594;2022-07-06T02:16:09;5.88;;;1.52;;
52432;SDS011;38352;53.244;6.594;2022-07-06T02:18:35;8.48;;;1.52;;
52432;SDS011;38352;53.244;6.594;2022-07-06T02:21:02;5.03;;;1.92;;
52432;SDS011;38352;53.244;6.594;2022-07-06T02:23:29;5.93;;;1.80;;
52432;SDS011;38352;53.244;6.594;2022-07-06T02:25:55;2.97;;;1.13;;
52432;SDS011;38352;53.244;6.594;2022-07-06T02:28:21;5.45;;;1.20;;
52432;SDS011;38352;53.244;6.594;2022-07-06T02:30:47;6.20;;;2.00;;
52432;SDS011;38352;53.244;6.594;2022-07-06T02:33:13;4.75;;;1.25;;
52432;SDS011;38352;53.244;6.594;2022-07-06T02:35:39;4.50;;;1.27;;
52432;SDS011;38352;53.244;6.594;2022-07-06T02:38:08;9.68;;;1.80;;
52432;SDS011;38352;53.244;6.594;2022-07-06T02:40:35;5.90;;;1.45;;
52432;SDS011;38352;53.244;6.594;2022-07-06T02:43:01;3.20;;;1.20;;
52432;SDS011;38352;53.244;6.594;2022-07-06T02:45:27;5.80;;;1.30;;
52432;SDS011;38352;53.244;6.594;2022-07-06T02:47:53;3.40;;;1.20;;
52432;SDS011;38352;53.244;6.594;2022-07-06T02:50:21;4.47;;;1.52;;
52432;SDS011;38352;53.244;6.594;2022-07-06T02:52:47;3.92;;;1.45;;
52432;SDS011;38352;53.244;6.594;2022-07-06T02:55:13;5.28;;;1.40;;
52432;SDS011;38352;53.244;6.594;2022-07-06T02:57:39;7.72;;;1.63;;
52432;SDS011;38352;53.244;6.594;2022-07-06T03:00:05;5.35;;;1.38;;
52432;SDS011;38352;53.244;6.594;2022-07-06T03:02:31;6.03;;;1.42;;
52432;SDS011;38352;53.244;6.594;2022-07-06T03:04:58;9.15;;;1.50;;
52432;SDS011;38352;53.244;6.594;2022-07-06T03:07:24;8.15;;;1.83;;
52432;SDS011;38352;53.244;6.594;2022-07-06T03:09:50;4.13;;;1.52;;
52432;SDS011;38352;53.244;6.594;2022-07-06T03:12:16;4.53;;;1.30;;
52432;SDS011;38352;53.244;6.594;2022-07-06T03:14:42;3.35;;;1.40;;
52432;SDS011;38352;53.244;6.594;2022-07-06T03:17:08;10.15;;;1.63;;
52432;SDS011;38352;53.244;6.594;2022-07-06T03:19:35;7.20;;;1.65;;
52432;SDS011;38352;53.244;6.594;2022-07-06T03:22:01;6.45;;;1.45;;
52432;SDS011;38352;53.244;6.594;2022-07-06T03:24:27;4.70;;;1.60;;
52432;SDS011;38352;53.244;6.594;2022-07-06T03:26:53;6.80;;;1.42;;
52432;SDS011;38352;53.244;6.594;2022-07-06T03:29:19;6.10;;;1.77;;
52432;SDS011;38352;53.244;6.594;2022-07-06T03:31:45;4.68;;;1.30;;
52432;SDS011;38352;53.244;6.594;2022-07-06T03:34:12;4.32;;;1.48;;
52432;SDS011;38352;53.244;6.594;2022-07-06T03:36:38;5.72;;;1.50;;
52432;SDS011;38352;53.244;6.594;2022-07-06T03:39:05;3.70;;;1.50;;
52432;SDS011;38352;53.244;6.594;2022-07-06T03:41:31;5.32;;;1.40;;
52432;SDS011;38352;53.244;6.594;2022-07-06T03:43:57;6.10;;;1.80;;
52432;SDS011;38352;53.244;6.594;2022-07-06T03:46:23;5.30;;;1.40;;
52432;SDS011;38352;53.244;6.594;2022-07-06T03:48:49;2.50;;;1.50;;
52432;SDS011;38352;53.244;6.594;2022-07-06T03:51:15;6.47;;;2.00;;
52432;SDS011;38352;53.244;6.594;2022-07-06T03:53:43;3.60;;;1.50;;
52432;SDS011;38352;53.244;6.594;2022-07-06T03:56:09;5.68;;;1.60;;
52432;SDS011;38352;53.244;6.594;2022-07-06T04:01:19;4.35;;;1.65;;
52432;SDS011;38352;53.244;6.594;2022-07-06T04:03:45;6.95;;;1.73;;
52432;SDS011;38352;53.244;6.594;2022-07-06T04:06:11;4.10;;;1.25;;
52432;SDS011;38352;53.244;6.594;2022-07-06T04:08:37;4.15;;;1.67;;
52432;SDS011;38352;53.244;6.594;2022-07-06T04:11:03;3.05;;;1.23;;
52432;SDS011;38352;53.244;6.594;2022-07-06T04:13:29;8.18;;;1.35;;
52432;SDS011;38352;53.244;6.594;2022-07-06T04:15:55;7.40;;;1.52;;
52432;SDS011;38352;53.244;6.594;2022-07-06T04:18:21;6.40;;;1.50;;
52432;SDS011;38352;53.244;6.594;2022-07-06T04:20:48;3.92;;;1.33;;
52432;SDS011;38352;53.244;6.594;2022-07-06T04:23:14;6.50;;;1.30;;
52432;SDS011;38352;53.244;6.594;2022-07-06T04:25:40;4.43;;;1.25;;
52432;SDS011;38352;53.244;6.594;2022-07-06T04:28:06;7.78;;;1.70;;
52432;SDS011;38352;53.244;6.594;2022-07-06T04:30:32;4.75;;;1.40;;
52432;SDS011;38352;53.244;6.594;2022-07-06T04:32:58;4.93;;;1.88;;
52432;SDS011;38352;53.244;6.594;2022-07-06T04:35:24;4.63;;;1.20;;
52432;SDS011;38352;53.244;6.594;2022-07-06T04:37:50;5.72;;;1.75;;
52432;SDS011;38352;53.244;6.594;2022-07-06T04:40:16;7.53;;;1.40;;
52432;SDS011;38352;53.244;6.594;2022-07-06T04:42:42;4.95;;;1.33;;
52432;SDS011;38352;53.244;6.594;2022-07-06T04:45:09;6.10;;;1.20;;
52432;SDS011;38352;53.244;6.594;2022-07-06T04:47:35;4.60;;;1.30;;
52432;SDS011;38352;53.244;6.594;2022-07-06T04:50:02;4.75;;;1.52;;
52432;SDS011;38352;53.244;6.594;2022-07-06T04:52:28;4.10;;;1.20;;
52432;SDS011;38352;53.244;6.594;2022-07-06T04:54:55;3.25;;;1.33;;
52432;SDS011;38352;53.244;6.594;2022-07-06T04:57:21;14.43;;;1.67;;
52432;SDS011;38352;53.244;6.594;2022-07-06T04:59:47;5.30;;;0.90;;
52432;SDS011;38352;53.244;6.594;2022-07-06T05:02:13;4.15;;;1.10;;
52432;SDS011;38352;53.244;6.594;2022-07-06T05:04:39;4.45;;;1.10;;
52432;SDS011;38352;53.244;6.594;2022-07-06T05:07:05;3.67;;;1.00;;
52432;SDS011;38352;53.244;6.594;2022-07-06T05:09:31;2.65;;;0.85;;
52432;SDS011;38352;53.244;6.594;2022-07-06T05:11:57;3.38;;;0.82;;
52432;SDS011;38352;53.244;6.594;2022-07-06T05:14:23;2.90;;;0.98;;
52432;SDS011;38352;53.244;6.594;2022-07-06T05:16:49;3.92;;;1.00;;
52432;SDS011;38352;53.244;6.594;2022-07-06T05:19:15;7.20;;;1.30;;
52432;SDS011;38352;53.244;6.594;2022-07-06T05:21:41;4.05;;;1.00;;
52432;SDS011;38352;53.244;6.594;2022-07-06T05:24:07;3.22;;;1.30;;
52432;SDS011;38352;53.244;6.594;2022-07-06T05:26:33;2.55;;;0.90;;
52432;SDS011;38352;53.244;6.594;2022-07-06T05:28:59;2.35;;;0.90;;
52432;SDS011;38352;53.244;6.594;2022-07-06T05:31:25;4.47;;;0.80;;
52432;SDS011;38352;53.244;6.594;2022-07-06T05:33:51;3.90;;;0.98;;
52432;SDS011;38352;53.244;6.594;2022-07-06T05:36:17;4.28;;;1.08;;
52432;SDS011;38352;53.244;6.594;2022-07-06T05:38:44;3.25;;;1.00;;
52432;SDS011;38352;53.244;6.594;2022-07-06T05:41:10;3.38;;;1.00;;
52432;SDS011;38352;53.244;6.594;2022-07-06T05:43:36;4.72;;;1.20;;
52432;SDS011;38352;53.244;6.594;2022-07-06T05:46:02;5.32;;;1.45;;
52432;SDS011;38352;53.244;6.594;2022-07-06T05:48:28;5.75;;;1.40;;
52432;SDS011;38352;53.244;6.594;2022-07-06T05:51:13;5.95;;;1.10;;
52432;SDS011;38352;53.244;6.594;2022-07-06T05:53:39;6.47;;;1.77;;
52432;SDS011;38352;53.244;6.594;2022-07-06T05:56:05;5.70;;;1.77;;
52432;SDS011;38352;53.244;6.594;2022-07-06T05:58:31;5.75;;;1.33;;
52432;SDS011;38352;53.244;6.594;2022-07-06T06:00:57;6.43;;;1.58;;
52432;SDS011;38352;53.244;6.594;2022-07-06T06:03:23;4.57;;;1.70;;
52432;SDS011;38352;53.244;6.594;2022-07-06T06:05:49;4.70;;;1.33;;
52432;SDS011;38352;53.244;6.594;2022-07-06T06:08:16;3.03;;;1.10;;
52432;SDS011;38352;53.244;6.594;2022-07-06T06:10:42;4.13;;;1.40;;
52432;SDS011;38352;53.244;6.594;2022-07-06T06:13:08;6.25;;;1.33;;
52432;SDS011;38352;53.244;6.594;2022-07-06T06:15:34;3.45;;;1.17;;
52432;SDS011;38352;53.244;6.594;2022-07-06T06:18:00;16.38;;;1.55;;
52432;SDS011;38352;53.244;6.594;2022-07-06T06:20:28;5.13;;;1.52;;
52432;SDS011;38352;53.244;6.594;2022-07-06T06:22:56;4.20;;;1.20;;
52432;SDS011;38352;53.244;6.594;2022-07-06T06:27:54;4.32;;;1.13;;
52432;SDS011;38352;53.244;6.594;2022-07-06T06:30:20;4.22;;;1.45;;
52432;SDS011;38352;53.244;6.594;2022-07-06T06:32:46;8.57;;;1.45;;
52432;SDS011;38352;53.244;6.594;2022-07-06T06:35:13;5.35;;;1.30;;
52432;SDS011;38352;53.244;6.594;2022-07-06T06:37:39;4.95;;;1.02;;
52432;SDS011;38352;53.244;6.594;2022-07-06T06:40:06;5.68;;;1.10;;
52432;SDS011;38352;53.244;6.594;2022-07-06T06:42:32;3.80;;;0.95;;
52432;SDS011;38352;53.244;6.594;2022-07-06T06:44:58;4.78;;;1.35;;
52432;SDS011;38352;53.244;6.594;2022-07-06T06:47:24;6.65;;;1.48;;
52432;SDS011;38352;53.244;6.594;2022-07-06T06:49:50;3.40;;;1.10;;
52432;SDS011;38352;53.244;6.594;2022-07-06T06:52:16;5.53;;;1.10;;
52432;SDS011;38352;53.244;6.594;2022-07-06T06:54:42;5.88;;;1.33;;
52432;SDS011;38352;53.244;6.594;2022-07-06T06:57:08;6.63;;;1.42;;
52432;SDS011;38352;53.244;6.594;2022-07-06T06:59:34;5.15;;;1.17;;
52432;SDS011;38352;53.244;6.594;2022-07-06T07:02:00;4.72;;;1.10;;
52432;SDS011;38352;53.244;6.594;2022-07-06T07:04:27;3.40;;;0.93;;
52432;SDS011;38352;53.244;6.594;2022-07-06T07:06:54;3.92;;;1.20;;
52432;SDS011;38352;53.244;6.594;2022-07-06T07:09:20;6.97;;;1.15;;
52432;SDS011;38352;53.244;6.594;2022-07-06T07:11:46;7.72;;;1.45;;
52432;SDS011;38352;53.244;6.594;2022-07-06T07:14:12;6.70;;;1.42;;
52432;SDS011;38352;53.244;6.594;2022-07-06T07:16:38;4.70;;;1.15;;
52432;SDS011;38352;53.244;6.594;2022-07-06T07:19:04;4.65;;;1.15;;
52432;SDS011;38352;53.244;6.594;2022-07-06T07:21:30;4.75;;;1.50;;
52432;SDS011;38352;53.244;6.594;2022-07-06T07:23:56;3.33;;;1.20;;
52432;SDS011;38352;53.244;6.594;2022-07-06T07:26:23;7.07;;;1.52;;
52432;SDS011;38352;53.244;6.594;2022-07-06T07:28:49;4.97;;;1.17;;
52432;SDS011;38352;53.244;6.594;2022-07-06T07:31:15;5.53;;;1.42;;
52432;SDS011;38352;53.244;6.594;2022-07-06T07:33:42;5.45;;;1.10;;
52432;SDS011;38352;53.244;6.594;2022-07-06T07:36:08;4.40;;;1.15;;
52432;SDS011;38352;53.244;6.594;2022-07-06T07:38:34;5.32;;;0.98;;
52432;SDS011;38352;53.244;6.594;2022-07-06T07:41:00;4.28;;;1.17;;
52432;SDS011;38352;53.244;6.594;2022-07-06T07:43:26;4.60;;;1.05;;
52432;SDS011;38352;53.244;6.594;2022-07-06T07:45:52;3.88;;;1.10;;
52432;SDS011;38352;53.244;6.594;2022-07-06T07:48:18;4.70;;;1.42;;
52432;SDS011;38352;53.244;6.594;2022-07-06T07:50:45;6.22;;;1.08;;
52432;SDS011;38352;53.244;6.594;2022-07-06T07:53:11;3.67;;;0.80;;
52432;SDS011;38352;53.244;6.594;2022-07-06T07:55:37;6.45;;;1.27;;
52432;SDS011;38352;53.244;6.594;2022-07-06T07:58:03;3.90;;;1.10;;
52432;SDS011;38352;53.244;6.594;2022-07-06T08:00:29;4.63;;;0.93;;
52432;SDS011;38352;53.244;6.594;2022-07-06T08:02:55;3.33;;;0.85;;
52432;SDS011;38352;53.244;6.594;2022-07-06T08:05:21;3.08;;;1.42;;
52432;SDS011;38352;53.244;6.594;2022-07-06T08:07:47;2.42;;;0.50;;
52432;SDS011;38352;53.244;6.594;2022-07-06T08:10:14;3.15;;;0.88;;
52432;SDS011;38352;53.244;6.594;2022-07-06T08:12:40;2.10;;;0.70;;
52432;SDS011;38352;53.244;6.594;2022-07-06T08:15:06;4.13;;;0.82;;
52432;SDS011;38352;53.244;6.594;2022-07-06T08:17:32;3.80;;;0.85;;
52432;SDS011;38352;53.244;6.594;2022-07-06T08:19:58;5.05;;;1.25;;
52432;SDS011;38352;53.244;6.594;2022-07-06T08:22:25;5.28;;;1.40;;
52432;SDS011;38352;53.244;6.594;2022-07-06T08:24:52;1.35;;;0.68;;
52432;SDS011;38352;53.244;6.594;2022-07-06T08:27:18;7.68;;;1.00;;
52432;SDS011;38352;53.244;6.594;2022-07-06T08:29:44;2.53;;;0.68;;
52432;SDS011;38352;53.244;6.594;2022-07-06T08:32:10;4.80;;;0.82;;
52432;SDS011;38352;53.244;6.594;2022-07-06T08:34:36;2.33;;;0.65;;
52432;SDS011;38352;53.244;6.594;2022-07-06T08:37:02;4.18;;;0.80;;
52432;SDS011;38352;53.244;6.594;2022-07-06T08:39:28;4.45;;;0.73;;
52432;SDS011;38352;53.244;6.594;2022-07-06T08:41:55;3.35;;;0.75;;
52432;SDS011;38352;53.244;6.594;2022-07-06T08:44:21;2.15;;;0.70;;
52432;SDS011;38352;53.244;6.594;2022-07-06T08:46:49;3.22;;;0.60;;
52432;SDS011;38352;53.244;6.594;2022-07-06T08:49:18;5.50;;;0.90;;
52432;SDS011;38352;53.244;6.594;2022-07-06T08:51:44;3.75;;;0.70;;
52432;SDS011;38352;53.244;6.594;2022-07-06T08:54:11;4.97;;;0.80;;
52432;SDS011;38352;53.244;6.594;2022-07-06T08:56:37;4.05;;;1.00;;
52432;SDS011;38352;53.244;6.594;2022-07-06T08:59:04;1.55;;;0.80;;
52432;SDS011;38352;53.244;6.594;2022-07-06T09:01:33;4.43;;;0.90;;
52432;SDS011;38352;53.244;6.594;2022-07-06T09:04:00;2.53;;;0.80;;
52432;SDS011;38352;53.244;6.594;2022-07-06T09:06:28;7.65;;;0.82;;
52432;SDS011;38352;53.244;6.594;2022-07-06T09:08:56;3.15;;;0.73;;
52432;SDS011;38352;53.244;6.594;2022-07-06T09:11:22;5.25;;;0.95;;
52432;SDS011;38352;53.244;6.594;2022-07-06T09:13:49;3.33;;;1.05;;
52432;SDS011;38352;53.244;6.594;2022-07-06T09:16:16;5.43;;;1.02;;
52432;SDS011;38352;53.244;6.594;2022-07-06T09:18:46;5.97;;;1.38;;
52432;SDS011;38352;53.244;6.594;2022-07-06T09:21:21;3.47;;;1.10;;
52432;SDS011;38352;53.244;6.594;2022-07-06T09:23:53;4.25;;;1.10;;
52432;SDS011;38352;53.244;6.594;2022-07-06T09:26:19;4.88;;;1.02;;
52432;SDS011;38352;53.244;6.594;2022-07-06T09:28:45;5.13;;;1.30;;
52432;SDS011;38352;53.244;6.594;2022-07-06T09:31:12;2.75;;;0.82;;
52432;SDS011;38352;53.244;6.594;2022-07-06T09:33:39;4.10;;;1.00;;
52432;SDS011;38352;53.244;6.594;2022-07-06T09:36:19;4.90;;;1.02;;
52432;SDS011;38352;53.244;6.594;2022-07-06T09:39:16;3.03;;;0.90;;
52432;SDS011;38352;53.244;6.594;2022-07-06T09:41:42;3.83;;;1.02;;
52432;SDS011;38352;53.244;6.594;2022-07-06T09:44:09;2.63;;;0.90;;
52432;SDS011;38352;53.244;6.594;2022-07-06T09:46:42;6.65;;;0.95;;
52432;SDS011;38352;53.244;6.594;2022-07-06T09:49:08;3.22;;;0.80;;
52432;SDS011;38352;53.244;6.594;2022-07-06T09:51:37;3.88;;;0.98;;
52432;SDS011;38352;53.244;6.594;2022-07-06T09:54:07;4.28;;;1.48;;
52432;SDS011;38352;53.244;6.594;2022-07-06T09:56:37;2.70;;;0.93;;
52432;SDS011;38352;53.244;6.594;2022-07-06T09:59:14;3.13;;;1.17;;
52432;SDS011;38352;53.244;6.594;2022-07-06T10:01:40;4.43;;;0.95;;
52432;SDS011;38352;53.244;6.594;2022-07-06T10:04:07;3.13;;;1.00;;
52432;SDS011;38352;53.244;6.594;2022-07-06T10:06:34;3.38;;;0.90;;
52432;SDS011;38352;53.244;6.594;2022-07-06T10:09:00;4.15;;;0.95;;
52432;SDS011;38352;53.244;6.594;2022-07-06T10:11:28;3.13;;;1.10;;
52432;SDS011;38352;53.244;6.594;2022-07-06T10:13:56;4.22;;;1.20;;
52432;SDS011;38352;53.244;6.594;2022-07-06T10:16:22;3.60;;;1.10;;
52432;SDS011;38352;53.244;6.594;2022-07-06T10:18:50;4.05;;;0.90;;
52432;SDS011;38352;53.244;6.594;2022-07-06T10:21:19;2.90;;;1.23;;
52432;SDS011;38352;53.244;6.594;2022-07-06T10:23:45;7.15;;;1.58;;
52432;SDS011;38352;53.244;6.594;2022-07-06T10:26:12;5.93;;;1.23;;
52432;SDS011;38352;53.244;6.594;2022-07-06T10:28:38;2.50;;;1.33;;
52432;SDS011;38352;53.244;6.594;2022-07-06T10:31:05;6.47;;;1.20;;
52432;SDS011;38352;53.244;6.594;2022-07-06T10:33:31;2.78;;;0.90;;
52432;SDS011;38352;53.244;6.594;2022-07-06T10:35:59;4.63;;;1.20;;
52432;SDS011;38352;53.244;6.594;2022-07-06T10:38:31;3.42;;;1.10;;
52432;SDS011;38352;53.244;6.594;2022-07-06T10:41:02;3.53;;;1.30;;
52432;SDS011;38352;53.244;6.594;2022-07-06T10:45:58;2.80;;;1.02;;
52432;SDS011;38352;53.244;6.594;2022-07-06T10:48:24;3.45;;;0.95;;
52432;SDS011;38352;53.244;6.594;2022-07-06T10:50:53;2.25;;;0.90;;
52432;SDS011;38352;53.244;6.594;2022-07-06T10:53:24;2.97;;;1.17;;
52432;SDS011;38352;53.244;6.594;2022-07-06T10:55:51;2.70;;;1.20;;
52432;SDS011;38352;53.244;6.594;2022-07-06T11:01:02;5.07;;;1.20;;
52432;SDS011;38352;53.244;6.594;2022-07-06T11:03:42;3.35;;;1.00;;
52432;SDS011;38352;53.244;6.594;2022-07-06T11:06:15;2.65;;;1.08;;
52432;SDS011;38352;53.244;6.594;2022-07-06T11:11:11;4.28;;;1.00;;
52432;SDS011;38352;53.244;6.594;2022-07-06T11:19:13;4.65;;;0.90;;
52432;SDS011;38352;53.244;6.594;2022-07-06T11:24:07;3.65;;;0.85;;
52432;SDS011;38352;53.244;6.594;2022-07-06T11:26:34;4.13;;;0.80;;
52432;SDS011;38352;53.244;6.594;2022-07-06T11:29:02;2.05;;;0.70;;
52432;SDS011;38352;53.244;6.594;2022-07-06T11:31:29;4.55;;;1.30;;
52432;SDS011;38352;53.244;6.594;2022-07-06T11:33:55;4.53;;;0.80;;
52432;SDS011;38352;53.244;6.594;2022-07-06T11:36:22;4.95;;;1.27;;
52432;SDS011;38352;53.244;6.594;2022-07-06T11:38:50;2.95;;;1.45;;
52432;SDS011;38352;53.244;6.594;2022-07-06T11:41:16;3.22;;;1.00;;
52432;SDS011;38352;53.244;6.594;2022-07-06T11:43:44;2.40;;;1.42;;
52432;SDS011;38352;53.244;6.594;2022-07-06T11:48:49;2.00;;;1.00;;
52432;SDS011;38352;53.244;6.594;2022-07-06T11:51:15;1.70;;;0.90;;
52432;SDS011;38352;53.244;6.594;2022-07-06T11:53:42;3.83;;;0.90;;
52432;SDS011;38352;53.244;6.594;2022-07-06T11:56:09;3.35;;;1.17;;
52432;SDS011;38352;53.244;6.594;2022-07-06T11:58:35;1.90;;;0.80;;
52432;SDS011;38352;53.244;6.594;2022-07-06T12:01:08;3.35;;;0.95;;
52432;SDS011;38352;53.244;6.594;2022-07-06T12:03:35;3.78;;;0.90;;
52432;SDS011;38352;53.244;6.594;2022-07-06T12:06:02;2.92;;;0.90;;
52432;SDS011;38352;53.244;6.594;2022-07-06T12:08:28;1.92;;;0.80;;
52432;SDS011;38352;53.244;6.594;2022-07-06T12:10:54;1.70;;;1.00;;
52432;SDS011;38352;53.244;6.594;2022-07-06T12:13:22;2.67;;;0.98;;
52432;SDS011;38352;53.244;6.594;2022-07-06T12:15:48;4.40;;;1.00;;
52432;SDS011;38352;53.244;6.594;2022-07-06T12:18:14;3.42;;;0.90;;
52432;SDS011;38352;53.244;6.594;2022-07-06T12:20:40;4.38;;;1.05;;
52432;SDS011;38352;53.244;6.594;2022-07-06T12:23:06;3.75;;;0.95;;
52432;SDS011;38352;53.244;6.594;2022-07-06T12:25:33;2.83;;;0.90;;
52432;SDS011;38352;53.244;6.594;2022-07-06T12:27:59;2.88;;;1.00;;
52432;SDS011;38352;53.244;6.594;2022-07-06T12:30:26;4.10;;;1.10;;
52432;SDS011;38352;53.244;6.594;2022-07-06T12:33:12;2.03;;;0.90;;
52432;SDS011;38352;53.244;6.594;2022-07-06T12:35:39;4.20;;;1.10;;
52432;SDS011;38352;53.244;6.594;2022-07-06T12:38:05;4.45;;;1.27;;
52432;SDS011;38352;53.244;6.594;2022-07-06T12:40:31;3.72;;;1.13;;
52432;SDS011;38352;53.244;6.594;2022-07-06T12:42:58;4.05;;;0.90;;
52432;SDS011;38352;53.244;6.594;2022-07-06T12:45:27;1.90;;;1.00;;
52432;SDS011;38352;53.244;6.594;2022-07-06T12:47:57;3.10;;;1.00;;
52432;SDS011;38352;53.244;6.594;2022-07-06T12:50:30;1.80;;;0.93;;
52432;SDS011;38352;53.244;6.594;2022-07-06T12:52:57;2.72;;;0.80;;
52432;SDS011;38352;53.244;6.594;2022-07-06T12:55:27;6.25;;;1.45;;
52432;SDS011;38352;53.244;6.594;2022-07-06T12:57:54;2.65;;;0.80;;
52432;SDS011;38352;53.244;6.594;2022-07-06T13:00:20;1.65;;;0.88;;
52432;SDS011;38352;53.244;6.594;2022-07-06T13:02:53;3.95;;;1.00;;
52432;SDS011;38352;53.244;6.594;2022-07-06T13:05:23;3.65;;;1.10;;
52432;SDS011;38352;53.244;6.594;2022-07-06T13:07:53;3.15;;;0.93;;
52432;SDS011;38352;53.244;6.594;2022-07-06T13:10:20;3.10;;;0.90;;
52432;SDS011;38352;53.244;6.594;2022-07-06T13:12:46;3.05;;;1.38;;
52432;SDS011;38352;53.244;6.594;2022-07-06T13:15:12;5.82;;;1.38;;
52432;SDS011;38352;53.244;6.594;2022-07-06T13:17:38;3.53;;;0.90;;
52432;SDS011;38352;53.244;6.594;2022-07-06T13:20:05;1.75;;;0.80;;
52432;SDS011;38352;53.244;6.594;2022-07-06T13:22:31;2.90;;;1.10;;
52432;SDS011;38352;53.244;6.594;2022-07-06T13:24:58;3.15;;;1.02;;
52432;SDS011;38352;53.244;6.594;2022-07-06T13:27:24;3.80;;;1.00;;
52432;SDS011;38352;53.244;6.594;2022-07-06T13:29:50;4.82;;;1.00;;
52432;SDS011;38352;53.244;6.594;2022-07-06T13:32:16;3.45;;;1.00;;
52432;SDS011;38352;53.244;6.594;2022-07-06T13:34:43;3.50;;;0.93;;
52432;SDS011;38352;53.244;6.594;2022-07-06T13:37:09;2.70;;;1.10;;
52432;SDS011;38352;53.244;6.594;2022-07-06T13:39:35;2.08;;;1.00;;
52432;SDS011;38352;53.244;6.594;2022-07-06T13:42:01;3.67;;;1.10;;
52432;SDS011;38352;53.244;6.594;2022-07-06T13:44:27;4.25;;;1.10;;
52432;SDS011;38352;53.244;6.594;2022-07-06T13:46:53;3.00;;;1.15;;
52432;SDS011;38352;53.244;6.594;2022-07-06T13:49:19;2.85;;;1.15;;
52432;SDS011;38352;53.244;6.594;2022-07-06T13:51:46;3.90;;;0.93;;
52432;SDS011;38352;53.244;6.594;2022-07-06T13:54:12;3.22;;;1.17;;
52432;SDS011;38352;53.244;6.594;2022-07-06T13:56:39;4.07;;;1.23;;
52432;SDS011;38352;53.244;6.594;2022-07-06T13:59:05;1.88;;;1.00;;
52432;SDS011;38352;53.244;6.594;2022-07-06T14:01:31;3.97;;;1.30;;
52432;SDS011;38352;53.244;6.594;2022-07-06T14:03:58;4.13;;;1.10;;
52432;SDS011;38352;53.244;6.594;2022-07-06T14:06:25;3.00;;;0.90;;
52432;SDS011;38352;53.244;6.594;2022-07-06T14:08:51;2.83;;;1.00;;
52432;SDS011;38352;53.244;6.594;2022-07-06T14:11:17;4.20;;;1.05;;
52432;SDS011;38352;53.244;6.594;2022-07-06T14:13:44;2.22;;;1.02;;
52432;SDS011;38352;53.244;6.594;2022-07-06T14:16:10;3.28;;;1.00;;
52432;SDS011;38352;53.244;6.594;2022-07-06T14:18:36;3.88;;;1.25;;
52432;SDS011;38352;53.244;6.594;2022-07-06T14:21:02;2.13;;;0.88;;
52432;SDS011;38352;53.244;6.594;2022-07-06T14:23:29;3.85;;;1.10;;
52432;SDS011;38352;53.244;6.594;2022-07-06T14:25:55;3.38;;;1.17;;
52432;SDS011;38352;53.244;6.594;2022-07-06T14:28:22;3.30;;;1.05;;
52432;SDS011;38352;53.244;6.594;2022-07-06T14:30:48;3.30;;;1.08;;
52432;SDS011;38352;53.244;6.594;2022-07-06T14:33:14;4.82;;;1.33;;
52432;SDS011;38352;53.244;6.594;2022-07-06T14:35:45;3.30;;;1.30;;
52432;SDS011;38352;53.244;6.594;2022-07-06T14:38:12;3.28;;;1.55;;
52432;SDS011;38352;53.244;6.594;2022-07-06T14:40:39;3.47;;;1.35;;
52432;SDS011;38352;53.244;6.594;2022-07-06T14:43:05;8.00;;;1.48;;
52432;SDS011;38352;53.244;6.594;2022-07-06T14:45:31;4.60;;;1.85;;
52432;SDS011;38352;53.244;6.594;2022-07-06T14:47:57;2.80;;;1.20;;
52432;SDS011;38352;53.244;6.594;2022-07-06T14:50:24;3.45;;;1.35;;
52432;SDS011;38352;53.244;6.594;2022-07-06T14:52:51;6.03;;;1.80;;
52432;SDS011;38352;53.244;6.594;2022-07-06T14:55:17;3.80;;;1.50;;
52432;SDS011;38352;53.244;6.594;2022-07-06T14:57:43;3.42;;;1.23;;
52432;SDS011;38352;53.244;6.594;2022-07-06T15:00:09;8.93;;;2.00;;
52432;SDS011;38352;53.244;6.594;2022-07-06T15:02:36;5.30;;;1.90;;
52432;SDS011;38352;53.244;6.594;2022-07-06T15:05:02;5.60;;;2.10;;
52432;SDS011;38352;53.244;6.594;2022-07-06T15:07:31;4.50;;;2.33;;
52432;SDS011;38352;53.244;6.594;2022-07-06T15:09:57;5.97;;;2.60;;
52432;SDS011;38352;53.244;6.594;2022-07-06T15:12:23;7.25;;;2.63;;